createdAt,value
2018-03-22T00:00:57.392Z,24.60
2018-03-22T00:01:57.386Z,21.90
2018-03-22T00:02:57.390Z,22.60
2018-03-22T00:03:57.407Z,21.60
2018-03-22T00:04:57.408Z,21.90
2018-03-22T00:05:57.396Z,22.10
2018-03-22T00:06:57.415Z,21.80
2018-03-22T00:07:57.402Z,19.20
2018-03-22T00:08:57.408Z,19.10
2018-03-22T00:09:57.405Z,19.20
2018-03-22T00:10:57.406Z,24.50
2018-03-22T00:11:57.412Z,17.60
2018-03-22T00:12:57.412Z,21.30
2018-03-22T00:13:57.418Z,24.40
2018-03-22T00:14:57.410Z,20.40
2018-03-22T00:15:58.443Z,21.30
2018-03-22T00:16:57.421Z,20.60
2018-03-22T00:17:57.432Z,20.60
2018-03-22T00:18:57.416Z,22.80
2018-03-22T00:19:57.417Z,21.20
2018-03-22T00:20:57.425Z,21.20
2018-03-22T00:21:57.418Z,20.50
2018-03-22T00:22:57.427Z,25.50
2018-03-22T00:23:57.419Z,20.20
2018-03-22T00:24:57.430Z,22.80
2018-03-22T00:25:57.426Z,24.80
2018-03-22T00:26:57.427Z,22.50
2018-03-22T00:27:57.433Z,20.40
2018-03-22T00:28:57.436Z,19.50
2018-03-22T00:29:57.435Z,23.40
2018-03-22T00:30:57.434Z,23.40
2018-03-22T00:31:57.441Z,21.20
2018-03-22T00:32:57.452Z,24.90
2018-03-22T00:33:57.448Z,20.80
2018-03-22T00:34:57.441Z,21.40
2018-03-22T00:35:57.442Z,22.00
2018-03-22T00:36:57.465Z,20.30
2018-03-22T00:37:57.443Z,22.10
2018-03-22T00:38:57.471Z,22.10
2018-03-22T00:39:57.452Z,21.50
2018-03-22T00:40:57.446Z,21.90
2018-03-22T00:41:57.448Z,21.70
2018-03-22T00:42:57.471Z,23.70
2018-03-22T00:43:57.460Z,19.00
2018-03-22T00:44:57.451Z,23.80
2018-03-22T00:45:57.526Z,21.80
2018-03-22T00:46:57.468Z,19.60
2018-03-22T00:47:57.457Z,22.30
2018-03-22T00:48:57.464Z,20.50
2018-03-22T00:49:57.553Z,22.70
2018-03-22T00:50:57.470Z,21.70
2018-03-22T00:51:57.564Z,21.70
2018-03-22T00:52:57.469Z,22.90
2018-03-22T00:53:57.577Z,22.60
2018-03-22T00:54:57.481Z,26.00
2018-03-22T00:55:58.516Z,23.00
2018-03-22T00:56:57.469Z,23.60
2018-03-22T00:57:57.488Z,25.50
2018-03-22T00:58:57.509Z,24.20
2018-03-22T00:59:57.481Z,24.00
2018-03-22T01:00:57.472Z,23.60
2018-03-22T01:01:57.477Z,23.60
2018-03-22T01:02:57.480Z,23.60
2018-03-22T01:03:57.479Z,26.10
2018-03-22T01:04:57.486Z,29.10
2018-03-22T01:05:57.489Z,27.00
2018-03-22T01:06:57.484Z,21.60
2018-03-22T01:07:57.567Z,25.10
2018-03-22T01:08:57.494Z,25.60
2018-03-22T01:09:57.494Z,23.90
2018-03-22T01:10:57.498Z,28.00
2018-03-22T01:11:57.492Z,24.60
2018-03-22T01:12:57.498Z,24.80
2018-03-22T01:13:57.505Z,22.70
2018-03-22T01:14:57.503Z,25.20
2018-03-22T01:15:57.500Z,22.20
2018-03-22T01:16:57.503Z,22.80
2018-03-22T01:17:57.499Z,20.90
2018-03-22T01:18:57.520Z,26.80
2018-03-22T01:19:57.510Z,25.90
2018-03-22T01:20:57.515Z,25.10
2018-03-22T01:21:57.562Z,23.50
2018-03-22T01:22:57.510Z,21.70
2018-03-22T01:23:57.577Z,27.10
2018-03-22T01:24:57.525Z,26.70
2018-03-22T01:25:57.620Z,26.80
2018-03-22T01:26:57.521Z,23.00
2018-03-22T01:27:57.632Z,25.60
2018-03-22T01:28:57.522Z,26.90
2018-03-22T01:29:58.553Z,22.90
2018-03-22T01:30:57.522Z,24.30
2018-03-22T01:31:57.525Z,25.60
2018-03-22T01:32:57.521Z,27.50
2018-03-22T01:33:57.528Z,26.00
2018-03-22T01:34:57.529Z,24.80
2018-03-22T01:35:57.536Z,24.90
2018-03-22T01:36:58.624Z,26.40
2018-03-22T01:37:57.542Z,24.70
2018-03-22T01:38:57.532Z,27.90
2018-03-22T01:39:57.540Z,24.80
2018-03-22T01:40:57.532Z,29.20
2018-03-22T01:41:57.535Z,30.00
2018-03-22T01:42:57.617Z,24.50
2018-03-22T01:43:57.540Z,21.60
2018-03-22T01:44:57.543Z,28.10
2018-03-22T01:45:57.547Z,25.10
2018-03-22T01:46:57.593Z,23.20
2018-03-22T01:47:57.547Z,22.50
2018-03-22T01:48:57.558Z,26.50
2018-03-22T01:49:57.560Z,24.00
2018-03-22T01:50:57.574Z,22.60
2018-03-22T01:51:57.563Z,20.80
2018-03-22T01:52:57.558Z,23.10
2018-03-22T01:53:57.561Z,20.90
2018-03-22T01:54:57.560Z,24.00
2018-03-22T01:55:57.551Z,24.50
2018-03-22T01:56:57.558Z,23.20
2018-03-22T01:57:57.564Z,24.50
2018-03-22T01:58:57.630Z,26.40
2018-03-22T01:59:57.560Z,24.10
2018-03-22T02:00:57.644Z,22.80
2018-03-22T02:01:57.564Z,27.00
2018-03-22T02:02:57.562Z,23.20
2018-03-22T02:03:57.664Z,26.10
2018-03-22T02:04:57.577Z,21.20
2018-03-22T02:05:57.677Z,27.20
2018-03-22T02:06:57.571Z,25.00
2018-03-22T02:07:57.576Z,23.80
2018-03-22T02:08:57.580Z,24.30
2018-03-22T02:09:57.576Z,24.00
2018-03-22T02:10:57.606Z,26.40
2018-03-22T02:11:57.581Z,27.50
2018-03-22T02:12:57.585Z,23.50
2018-03-22T02:13:57.584Z,25.60
2018-03-22T02:14:57.589Z,22.40
2018-03-22T02:15:57.605Z,24.40
2018-03-22T02:16:57.586Z,22.00
2018-03-22T02:17:57.611Z,18.40
2018-03-22T02:18:57.594Z,26.80
2018-03-22T02:19:57.587Z,24.20
2018-03-22T02:20:57.588Z,23.50
2018-03-22T02:21:57.594Z,25.50
2018-03-22T02:22:57.594Z,22.30
2018-03-22T02:23:57.639Z,26.10
2018-03-22T02:24:57.636Z,23.60
2018-03-22T02:25:57.617Z,26.10
2018-03-22T02:26:57.599Z,22.80
2018-03-22T02:27:57.602Z,21.80
2018-03-22T02:28:57.599Z,24.90
2018-03-22T02:29:57.599Z,23.80
2018-03-22T02:30:57.625Z,26.30
2018-03-22T02:31:57.615Z,25.00
2018-03-22T02:32:57.618Z,24.00
2018-03-22T02:33:57.612Z,22.20
2018-03-22T02:34:57.644Z,24.00
2018-03-22T02:35:57.612Z,24.00
2018-03-22T02:36:59.712Z,23.60
2018-03-22T02:37:57.613Z,22.10
2018-03-22T02:38:57.664Z,24.00
2018-03-22T02:39:57.614Z,23.60
2018-03-22T02:40:58.706Z,22.10
2018-03-22T02:41:57.621Z,24.00
2018-03-22T02:42:57.621Z,22.10
2018-03-22T02:43:57.618Z,21.90
2018-03-22T02:44:57.716Z,23.80
2018-03-22T02:45:57.627Z,23.90
2018-03-22T02:46:57.726Z,23.80
2018-03-22T02:47:57.627Z,21.00
2018-03-22T02:48:57.740Z,22.70
2018-03-22T02:49:57.634Z,27.20
2018-03-22T02:50:57.632Z,24.20
2018-03-22T02:51:57.638Z,24.10
2018-03-22T02:52:57.642Z,21.50
2018-03-22T02:53:57.643Z,23.90
2018-03-22T02:54:57.639Z,22.90
2018-03-22T02:55:57.646Z,25.40
2018-03-22T02:56:57.646Z,22.80
2018-03-22T02:57:57.654Z,21.90
2018-03-22T02:58:57.639Z,23.60
2018-03-22T02:59:57.712Z,24.50
2018-03-22T03:00:57.650Z,25.50
2018-03-22T03:01:57.773Z,24.40
2018-03-22T03:02:57.661Z,26.50
2018-03-22T03:03:57.657Z,26.90
2018-03-22T03:04:57.656Z,25.80
2018-03-22T03:05:57.654Z,24.30
2018-03-22T03:06:57.657Z,21.90
2018-03-22T03:07:57.660Z,28.50
2018-03-22T03:08:57.652Z,23.70
2018-03-22T03:09:57.655Z,29.00
2018-03-22T03:10:57.691Z,24.20
2018-03-22T03:11:57.675Z,23.90
2018-03-22T03:12:57.669Z,24.80
2018-03-22T03:13:57.713Z,30.70
2018-03-22T03:14:57.665Z,24.40
2018-03-22T03:15:57.723Z,28.50
2018-03-22T03:16:57.679Z,29.20
2018-03-22T03:17:57.738Z,24.50
2018-03-22T03:18:57.675Z,25.50
2018-03-22T03:19:57.748Z,24.10
2018-03-22T03:20:57.672Z,23.80
2018-03-22T03:21:57.678Z,27.80
2018-03-22T03:22:57.677Z,27.70
2018-03-22T03:23:57.676Z,27.30
2018-03-22T03:24:57.683Z,25.40
2018-03-22T03:25:57.686Z,30.10
2018-03-22T03:26:57.697Z,27.80
2018-03-22T03:27:57.688Z,26.50
2018-03-22T03:28:57.681Z,25.10
2018-03-22T03:29:57.683Z,24.20
2018-03-22T03:30:57.704Z,26.30
2018-03-22T03:31:57.728Z,26.50
2018-03-22T03:32:57.690Z,23.80
2018-03-22T03:33:57.750Z,28.50
2018-03-22T03:34:57.705Z,25.10
2018-03-22T03:35:57.721Z,27.20
2018-03-22T03:36:57.777Z,25.20
2018-03-22T03:37:57.701Z,26.90
2018-03-22T03:38:57.694Z,29.20
2018-03-22T03:39:57.709Z,24.90
2018-03-22T03:40:57.786Z,25.60
2018-03-22T03:41:57.706Z,26.80
2018-03-22T03:42:57.703Z,25.20
2018-03-22T03:43:57.807Z,28.80
2018-03-22T03:44:57.707Z,30.40
2018-03-22T03:45:57.705Z,25.50
2018-03-22T03:46:57.717Z,26.40
2018-03-22T03:47:57.707Z,27.50
2018-03-22T03:48:57.733Z,26.60
2018-03-22T03:49:57.712Z,28.50
2018-03-22T03:50:57.726Z,29.70
2018-03-22T03:51:57.770Z,28.50
2018-03-22T03:52:57.713Z,27.80
2018-03-22T03:53:57.779Z,30.20
2018-03-22T03:54:57.730Z,30.10
2018-03-22T03:55:57.791Z,26.70
2018-03-22T03:56:57.727Z,29.40
2018-03-22T03:57:57.795Z,27.80
2018-03-22T03:58:57.719Z,25.60
2018-03-22T03:59:58.834Z,29.00
2018-03-22T04:00:57.725Z,26.90
2018-03-22T04:01:57.818Z,30.40
2018-03-22T04:02:57.730Z,28.30
2018-03-22T04:03:57.741Z,29.00
2018-03-22T04:04:57.816Z,28.60
2018-03-22T04:05:57.736Z,31.70
2018-03-22T04:06:57.838Z,27.80
2018-03-22T04:07:57.733Z,28.10
2018-03-22T04:08:57.843Z,24.80
2018-03-22T04:09:57.741Z,30.10
2018-03-22T04:10:57.862Z,29.20
2018-03-22T04:11:57.746Z,27.20
2018-03-22T04:12:57.782Z,29.50
2018-03-22T04:13:57.748Z,27.60
2018-03-22T04:14:58.808Z,28.60
2018-03-22T04:15:57.785Z,31.70
2018-03-22T04:16:57.799Z,32.80
2018-03-22T04:17:57.748Z,29.90
2018-03-22T04:18:57.752Z,32.40
2018-03-22T04:19:57.836Z,31.50
2018-03-22T04:20:57.757Z,29.30
2018-03-22T04:21:57.832Z,31.70
2018-03-22T04:22:57.760Z,30.10
2018-03-22T04:23:57.857Z,30.40
2018-03-22T04:24:57.763Z,34.90
2018-03-22T04:25:57.870Z,30.90
2018-03-22T04:26:57.778Z,31.10
2018-03-22T04:27:57.766Z,33.40
2018-03-22T04:28:57.902Z,36.40
2018-03-22T04:29:57.772Z,33.40
2018-03-22T04:30:57.768Z,34.40
2018-03-22T04:31:57.810Z,31.60
2018-03-22T04:32:57.772Z,32.90
2018-03-22T04:33:57.822Z,34.80
2018-03-22T04:34:57.788Z,32.40
2018-03-22T04:35:57.778Z,33.20
2018-03-22T04:36:57.783Z,36.40
2018-03-22T04:37:57.778Z,31.60
2018-03-22T04:38:57.776Z,28.80
2018-03-22T04:39:57.781Z,34.70
2018-03-22T04:40:57.774Z,33.70
2018-03-22T04:41:57.874Z,35.40
2018-03-22T04:42:57.811Z,34.40
2018-03-22T04:43:57.798Z,30.80
2018-03-22T04:44:57.789Z,33.80
2018-03-22T04:45:57.793Z,36.50
2018-03-22T04:46:57.814Z,32.10
2018-03-22T04:47:57.788Z,34.40
2018-03-22T04:48:57.796Z,35.00
2018-03-22T04:49:57.797Z,36.30
2018-03-22T04:50:57.834Z,43.80
2018-03-22T04:51:57.795Z,37.80
2018-03-22T04:52:57.799Z,35.80
2018-03-22T04:53:57.858Z,36.00
2018-03-22T04:54:57.816Z,38.00
2018-03-22T04:55:57.874Z,35.30
2018-03-22T04:56:57.804Z,41.20
2018-03-22T04:57:57.929Z,36.60
2018-03-22T04:58:57.802Z,36.50
2018-03-22T04:59:57.900Z,34.70
2018-03-22T05:00:57.802Z,35.30
2018-03-22T05:01:57.809Z,39.30
2018-03-22T05:02:57.813Z,40.80
2018-03-22T05:03:57.811Z,42.60
2018-03-22T05:04:57.831Z,40.80
2018-03-22T05:05:57.812Z,37.80
2018-03-22T05:06:57.899Z,42.70
2018-03-22T05:07:57.818Z,40.60
2018-03-22T05:08:57.831Z,41.30
2018-03-22T05:09:57.862Z,34.50
2018-03-22T05:10:57.836Z,38.20
2018-03-22T05:11:57.838Z,40.70
2018-03-22T05:12:57.854Z,42.90
2018-03-22T05:13:57.818Z,41.00
2018-03-22T05:14:57.826Z,38.10
2018-03-22T05:15:57.912Z,42.40
2018-03-22T05:16:57.822Z,44.20
2018-03-22T05:17:57.915Z,40.20
2018-03-22T05:18:57.824Z,47.50
2018-03-22T05:19:57.933Z,42.60
2018-03-22T05:20:57.838Z,44.50
2018-03-22T05:21:57.968Z,43.10
2018-03-22T05:22:57.839Z,43.90
2018-03-22T05:23:57.857Z,42.50
2018-03-22T05:24:57.881Z,41.80
2018-03-22T05:25:58.901Z,41.10
2018-03-22T05:26:57.843Z,44.90
2018-03-22T05:27:57.883Z,42.30
2018-03-22T05:28:57.844Z,42.20
2018-03-22T05:29:57.899Z,45.60
2018-03-22T05:30:57.842Z,45.20
2018-03-22T05:31:57.846Z,42.60
2018-03-22T05:32:57.914Z,42.90
2018-03-22T05:33:57.868Z,47.50
2018-03-22T05:34:57.896Z,48.20
2018-03-22T05:35:57.853Z,45.20
2018-03-22T05:36:57.910Z,44.80
2018-03-22T05:37:57.875Z,47.00
2018-03-22T05:38:57.925Z,41.10
2018-03-22T05:39:57.857Z,42.40
2018-03-22T05:40:57.859Z,47.60
2018-03-22T05:41:57.941Z,47.80
2018-03-22T05:42:57.864Z,43.00
2018-03-22T05:43:57.952Z,47.00
2018-03-22T05:44:57.899Z,45.20
2018-03-22T05:45:57.865Z,44.30
2018-03-22T05:46:57.868Z,42.50
2018-03-22T05:47:57.874Z,44.40
2018-03-22T05:48:57.905Z,44.90
2018-03-22T05:49:59.940Z,45.50
2018-03-22T05:50:57.866Z,40.90
2018-03-22T05:51:57.904Z,42.30
2018-03-22T05:52:57.934Z,36.20
2018-03-22T05:53:57.883Z,39.80
2018-03-22T05:54:57.928Z,43.30
2018-03-22T05:55:57.878Z,47.10
2018-03-22T05:56:58.966Z,40.30
2018-03-22T05:57:57.904Z,42.00
2018-03-22T05:58:57.970Z,40.90
2018-03-22T05:59:57.880Z,44.60
2018-03-22T06:00:58.005Z,42.70
2018-03-22T06:01:57.887Z,46.70
2018-03-22T06:02:57.992Z,39.20
2018-03-22T06:03:57.897Z,44.30
2018-03-22T06:04:58.021Z,42.70
2018-03-22T06:05:57.889Z,46.50
2018-03-22T06:06:57.899Z,43.10
2018-03-22T06:07:57.914Z,48.30
2018-03-22T06:08:57.918Z,45.10
2018-03-22T06:09:57.888Z,51.40
2018-03-22T06:10:57.893Z,45.30
2018-03-22T06:11:57.898Z,40.50
2018-03-22T06:12:57.902Z,45.30
2018-03-22T06:13:57.907Z,46.10
2018-03-22T06:14:57.905Z,49.00
2018-03-22T06:15:57.916Z,50.30
2018-03-22T06:16:57.901Z,44.80
2018-03-22T06:17:57.907Z,44.70
2018-03-22T06:18:57.913Z,49.50
2018-03-22T06:19:57.919Z,49.40
2018-03-22T06:20:57.906Z,47.10
2018-03-22T06:21:57.913Z,51.90
2018-03-22T06:22:57.922Z,50.50
2018-03-22T06:23:57.924Z,49.10
2018-03-22T06:24:57.971Z,54.50
2018-03-22T06:25:57.921Z,52.30
2018-03-22T06:26:58.010Z,47.20
2018-03-22T06:27:57.917Z,51.20
2018-03-22T06:28:58.027Z,48.30
2018-03-22T06:29:57.929Z,49.20
2018-03-22T06:30:57.977Z,53.80
2018-03-22T06:31:57.926Z,44.30
2018-03-22T06:32:58.983Z,50.90
2018-03-22T06:33:57.922Z,51.50
2018-03-22T06:34:57.978Z,49.30
2018-03-22T06:35:57.921Z,52.50
2018-03-22T06:36:57.942Z,48.40
2018-03-22T06:37:57.953Z,53.50
2018-03-22T06:38:57.935Z,50.90
2018-03-22T06:39:57.931Z,50.30
2018-03-22T06:40:57.942Z,50.70
2018-03-22T06:41:57.941Z,48.90
2018-03-22T06:42:58.033Z,46.00
2018-03-22T06:43:57.940Z,52.50
2018-03-22T06:44:58.986Z,43.10
2018-03-22T06:45:57.943Z,50.20
2018-03-22T06:46:57.944Z,52.10
2018-03-22T06:47:57.962Z,49.70
2018-03-22T06:48:57.946Z,52.10
2018-03-22T06:49:57.947Z,47.90
2018-03-22T06:50:59.009Z,48.10
2018-03-22T06:51:57.966Z,50.90
2018-03-22T06:52:59.022Z,48.90
2018-03-22T06:53:57.951Z,52.30
2018-03-22T06:54:59.033Z,51.30
2018-03-22T06:55:57.955Z,50.20
2018-03-22T06:56:58.128Z,49.50
2018-03-22T06:57:57.947Z,50.90
2018-03-22T06:58:58.135Z,52.50
2018-03-22T06:59:57.958Z,52.10
2018-03-22T07:00:57.967Z,49.50
2018-03-22T07:01:58.050Z,52.10
2018-03-22T07:02:57.962Z,52.60
2018-03-22T07:03:58.067Z,54.10
2018-03-22T07:04:57.964Z,50.10
2018-03-22T07:05:58.078Z,51.20
2018-03-22T07:06:58.010Z,49.50
2018-03-22T07:07:57.993Z,33.50
2018-03-22T07:08:57.977Z,44.50
2018-03-22T07:09:58.005Z,44.90
2018-03-22T07:10:57.975Z,45.20
2018-03-22T07:11:57.966Z,46.00
2018-03-22T07:12:57.980Z,50.50
2018-03-22T07:13:57.972Z,50.00
2018-03-22T07:14:57.976Z,45.60
2018-03-22T07:15:57.975Z,38.60
2018-03-22T07:17:00.098Z,44.30
2018-03-22T07:17:57.982Z,47.10
2018-03-22T07:18:57.979Z,44.90
2018-03-22T07:19:57.991Z,44.40
2018-03-22T07:20:57.996Z,43.80
2018-03-22T07:21:58.075Z,46.30
2018-03-22T07:22:58.013Z,46.00
2018-03-22T07:23:58.098Z,45.10
2018-03-22T07:24:58.002Z,44.50
2018-03-22T07:25:58.024Z,43.90
2018-03-22T07:26:57.990Z,41.80
2018-03-22T07:27:58.018Z,43.50
2018-03-22T07:28:58.000Z,40.70
2018-03-22T07:29:58.018Z,44.10
2018-03-22T07:30:57.997Z,41.10
2018-03-22T07:31:57.996Z,42.30
2018-03-22T07:32:58.025Z,42.40
2018-03-22T07:33:57.997Z,45.10
2018-03-22T07:34:58.000Z,45.70
2018-03-22T07:35:58.072Z,46.80
2018-03-22T07:36:58.004Z,41.10
2018-03-22T07:37:58.008Z,41.10
2018-03-22T07:38:58.012Z,41.00
2018-03-22T07:39:58.004Z,40.40
2018-03-22T07:40:58.008Z,42.30
2018-03-22T07:41:58.013Z,41.00
2018-03-22T07:42:58.024Z,36.80
2018-03-22T07:43:58.131Z,40.80
2018-03-22T07:44:58.014Z,42.50
2018-03-22T07:45:58.034Z,41.00
2018-03-22T07:46:58.016Z,38.80
2018-03-22T07:47:58.017Z,38.60
2018-03-22T07:48:58.021Z,37.00
2018-03-22T07:49:58.069Z,37.00
2018-03-22T07:50:58.026Z,34.10
2018-03-22T07:52:00.129Z,33.70
2018-03-22T07:52:58.020Z,36.90
2018-03-22T07:53:58.094Z,37.40
2018-03-22T07:54:58.026Z,37.10
2018-03-22T07:55:58.130Z,35.40
2018-03-22T07:56:58.034Z,34.80
2018-03-22T07:57:58.035Z,33.50
2018-03-22T07:58:58.197Z,34.30
2018-03-22T07:59:58.031Z,37.20
2018-03-22T08:00:58.147Z,34.20
2018-03-22T08:01:58.032Z,35.90
2018-03-22T08:02:58.057Z,36.70
2018-03-22T08:03:58.037Z,33.50
2018-03-22T08:04:58.082Z,34.10
2018-03-22T08:05:58.050Z,34.60
2018-03-22T08:06:58.083Z,36.00
2018-03-22T08:07:58.043Z,35.80
2018-03-22T08:08:58.050Z,32.40
2018-03-22T08:09:58.048Z,32.30
2018-03-22T08:10:58.118Z,33.90
2018-03-22T08:11:58.062Z,29.50
2018-03-22T08:12:58.045Z,31.90
2018-03-22T08:13:58.047Z,32.20
2018-03-22T08:14:58.054Z,31.40
2018-03-22T08:15:58.050Z,31.70
2018-03-22T08:16:58.056Z,34.10
2018-03-22T08:17:58.061Z,30.60
2018-03-22T08:18:59.179Z,30.30
2018-03-22T08:19:58.077Z,31.30
2018-03-22T08:20:58.081Z,28.20
2018-03-22T08:21:58.061Z,28.00
2018-03-22T08:22:58.069Z,29.80
2018-03-22T08:23:58.068Z,27.40
2018-03-22T08:24:58.064Z,24.40
2018-03-22T08:25:58.144Z,27.70
2018-03-22T08:26:58.221Z,27.00
2018-03-22T08:27:58.071Z,23.20
2018-03-22T08:28:58.069Z,27.80
2018-03-22T08:29:58.076Z,28.70
2018-03-22T08:30:58.064Z,25.50
2018-03-22T08:31:58.068Z,31.70
2018-03-22T08:32:58.072Z,28.40
2018-03-22T08:33:58.072Z,33.10
2018-03-22T08:34:58.078Z,32.10
2018-03-22T08:35:58.095Z,33.40
2018-03-22T08:36:58.093Z,32.20
2018-03-22T08:37:58.199Z,32.90
2018-03-22T08:38:58.082Z,32.00
2018-03-22T08:39:58.088Z,31.00
2018-03-22T08:40:58.089Z,33.20
2018-03-22T08:41:58.109Z,29.80
2018-03-22T08:42:58.087Z,30.60
2018-03-22T08:43:58.128Z,31.60
2018-03-22T08:44:58.088Z,30.30
2018-03-22T08:45:59.146Z,31.50
2018-03-22T08:46:58.096Z,31.40
2018-03-22T08:47:58.094Z,29.10
2018-03-22T08:48:58.133Z,31.80
2018-03-22T08:49:58.097Z,32.00
2018-03-22T08:50:58.146Z,32.30
2018-03-22T08:51:58.137Z,33.40
2018-03-22T08:52:58.098Z,35.60
2018-03-22T08:53:59.196Z,33.80
2018-03-22T08:54:58.111Z,33.30
2018-03-22T08:55:58.179Z,34.10
2018-03-22T08:56:58.097Z,34.80
2018-03-22T08:57:58.191Z,34.30
2018-03-22T08:58:58.118Z,32.20
2018-03-22T08:59:58.210Z,35.40
2018-03-22T09:00:58.120Z,36.10
2018-03-22T09:01:58.224Z,32.80
2018-03-22T09:02:58.123Z,29.20
2018-03-22T09:03:58.164Z,34.20
2018-03-22T09:04:58.146Z,34.60
2018-03-22T09:05:58.115Z,35.20
2018-03-22T09:06:58.152Z,34.90
2018-03-22T09:07:58.119Z,36.80
2018-03-22T09:08:58.166Z,30.40
2018-03-22T09:09:58.114Z,30.30
2018-03-22T09:10:58.224Z,32.10
2018-03-22T09:11:58.145Z,31.60
2018-03-22T09:12:58.193Z,32.60
2018-03-22T09:13:58.135Z,31.60
2018-03-22T09:14:58.204Z,34.60
2018-03-22T09:15:58.128Z,35.00
2018-03-22T09:16:58.218Z,33.70
2018-03-22T09:17:58.130Z,35.10
2018-03-22T09:18:58.233Z,33.00
2018-03-22T09:19:58.134Z,29.90
2018-03-22T09:20:58.138Z,30.90
2018-03-22T09:21:58.255Z,30.90
2018-03-22T09:22:58.134Z,29.00
2018-03-22T09:23:58.166Z,32.20
2018-03-22T09:24:58.139Z,29.40
2018-03-22T09:25:58.181Z,30.90
2018-03-22T09:26:58.144Z,30.30
2018-03-22T09:27:58.192Z,32.70
2018-03-22T09:28:58.153Z,30.40
2018-03-22T09:29:59.232Z,31.00
2018-03-22T09:30:58.145Z,30.60
2018-03-22T09:31:58.222Z,30.30
2018-03-22T09:32:58.154Z,28.60
2018-03-22T09:33:58.157Z,26.90
2018-03-22T09:34:58.153Z,29.10
2018-03-22T09:35:58.244Z,29.80
2018-03-22T09:36:58.173Z,30.50
2018-03-22T09:37:58.256Z,29.00
2018-03-22T09:38:58.177Z,29.10
2018-03-22T09:39:58.171Z,28.80
2018-03-22T09:40:58.208Z,28.60
2018-03-22T09:41:58.196Z,27.10
2018-03-22T09:42:58.181Z,29.00
2018-03-22T09:43:58.241Z,27.80
2018-03-22T09:44:58.166Z,29.90
2018-03-22T09:45:58.220Z,29.10
2018-03-22T09:46:58.165Z,30.00
2018-03-22T09:47:59.248Z,29.40
2018-03-22T09:48:58.162Z,29.50
2018-03-22T09:49:58.245Z,29.20
2018-03-22T09:50:58.169Z,26.50
2018-03-22T09:51:58.277Z,30.20
2018-03-22T09:52:58.180Z,30.70
2018-03-22T09:53:58.271Z,27.50
2018-03-22T09:54:58.177Z,30.30
2018-03-22T09:55:58.276Z,27.90
2018-03-22T09:56:58.182Z,28.50
2018-03-22T09:57:58.218Z,28.10
2018-03-22T09:58:58.188Z,27.80
2018-03-22T09:59:58.222Z,27.60
2018-03-22T10:00:58.184Z,24.90
2018-03-22T10:01:58.179Z,27.40
2018-03-22T10:02:58.187Z,27.10
2018-03-22T10:03:58.188Z,26.00
2018-03-22T10:04:58.258Z,26.00
2018-03-22T10:05:58.208Z,28.40
2018-03-22T10:06:58.276Z,25.30
2018-03-22T10:07:58.190Z,26.20
2018-03-22T10:08:58.196Z,26.30
2018-03-22T10:09:58.192Z,25.90
2018-03-22T10:10:58.196Z,28.70
2018-03-22T10:11:58.201Z,29.10
2018-03-22T10:12:58.206Z,26.80
2018-03-22T10:13:58.208Z,27.50
2018-03-22T10:14:58.307Z,25.20
2018-03-22T10:15:58.198Z,23.10
2018-03-22T10:16:58.209Z,26.00
2018-03-22T10:17:58.240Z,23.80
2018-03-22T10:18:58.216Z,24.60
2018-03-22T10:19:58.211Z,24.20
2018-03-22T10:20:58.204Z,25.00
2018-03-22T10:21:58.247Z,24.30
2018-03-22T10:22:58.222Z,22.20
2018-03-22T10:23:58.212Z,22.70
2018-03-22T10:24:58.208Z,23.30
2018-03-22T10:25:58.212Z,21.70
2018-03-22T10:26:58.218Z,23.40
2018-03-22T10:27:58.216Z,24.40
2018-03-22T10:28:58.302Z,21.10
2018-03-22T10:29:58.218Z,21.90
2018-03-22T10:30:58.227Z,22.80
2018-03-22T10:31:58.231Z,22.20
2018-03-22T10:32:58.232Z,22.80
2018-03-22T10:33:58.231Z,22.20
2018-03-22T10:34:58.433Z,21.90
2018-03-22T10:35:58.297Z,22.80
2018-03-22T10:36:58.239Z,24.20
2018-03-22T10:37:58.233Z,22.70
2018-03-22T10:38:58.236Z,22.70
2018-03-22T10:39:58.235Z,24.90
2018-03-22T10:40:58.239Z,22.70
2018-03-22T10:41:58.286Z,24.50
2018-03-22T10:42:58.242Z,23.20
2018-03-22T10:43:58.243Z,23.80
2018-03-22T10:44:58.242Z,25.90
2018-03-22T10:45:58.240Z,24.40
2018-03-22T10:46:58.244Z,24.00
2018-03-22T10:47:58.305Z,24.60
2018-03-22T10:48:58.245Z,23.90
2018-03-22T10:49:59.343Z,25.20
2018-03-22T10:50:58.298Z,24.00
2018-03-22T10:51:58.324Z,24.10
2018-03-22T10:52:58.252Z,25.60
2018-03-22T10:53:58.342Z,24.00
2018-03-22T10:54:58.252Z,24.30
2018-03-22T10:55:58.255Z,24.50
2018-03-22T10:56:58.267Z,24.70
2018-03-22T10:57:58.352Z,25.30
2018-03-22T10:58:58.260Z,25.60
2018-03-22T10:59:58.369Z,26.30
2018-03-22T11:00:58.266Z,25.90
2018-03-22T11:01:58.377Z,24.00
2018-03-22T11:02:58.270Z,25.30
2018-03-22T11:03:58.290Z,26.80
2018-03-22T11:04:58.266Z,27.70
2018-03-22T11:05:58.278Z,28.50
2018-03-22T11:06:58.272Z,26.20
2018-03-22T11:07:58.314Z,28.30
2018-03-22T11:08:58.273Z,29.40
2018-03-22T11:09:58.276Z,30.60
2018-03-22T11:10:58.284Z,30.30
2018-03-22T11:11:58.335Z,30.50
2018-03-22T11:12:58.286Z,31.60
2018-03-22T11:13:58.349Z,33.50
2018-03-22T11:14:58.282Z,32.10
2018-03-22T11:15:58.366Z,34.20
2018-03-22T11:16:58.287Z,36.50
2018-03-22T11:18:01.006Z,32.40
2018-03-22T11:19:00.015Z,32.10
2018-03-22T11:19:58.301Z,33.70
2018-03-22T11:21:00.012Z,34.30
2018-03-22T11:21:58.407Z,39.90
2018-03-22T11:23:00.253Z,34.50
2018-03-22T11:24:01.003Z,38.00
2018-03-22T11:24:58.325Z,37.00
2018-03-22T11:25:58.324Z,36.10
2018-03-22T11:26:58.335Z,35.70
2018-03-22T11:27:58.297Z,36.70
2018-03-22T11:28:58.300Z,34.50
2018-03-22T11:29:58.357Z,36.90
2018-03-22T11:30:58.317Z,36.40
2018-03-22T11:31:58.369Z,37.50
2018-03-22T11:32:58.310Z,38.10
2018-03-22T11:33:58.370Z,36.20
2018-03-22T11:34:58.326Z,36.90
2018-03-22T11:35:58.386Z,36.70
2018-03-22T11:36:58.319Z,33.90
2018-03-22T11:37:58.400Z,33.30
2018-03-22T11:38:58.322Z,31.60
2018-03-22T11:39:58.416Z,31.40
2018-03-22T11:40:58.323Z,28.80
2018-03-22T11:41:58.427Z,31.00
2018-03-22T11:42:58.336Z,29.20
2018-03-22T11:43:58.444Z,30.20
2018-03-22T11:44:58.332Z,31.80
2018-03-22T11:45:58.420Z,34.50
2018-03-22T11:46:58.328Z,31.50
2018-03-22T11:47:58.368Z,31.50
2018-03-22T11:48:58.332Z,32.40
2018-03-22T11:49:58.384Z,33.50
2018-03-22T11:50:58.345Z,31.20
2018-03-22T11:51:58.395Z,35.10
2018-03-22T11:52:58.341Z,33.50
2018-03-22T11:53:58.403Z,33.00
2018-03-22T11:54:58.348Z,32.40
2018-03-22T11:55:58.418Z,32.50
2018-03-22T11:56:58.363Z,30.30
2018-03-22T11:57:58.434Z,32.30
2018-03-22T11:58:58.349Z,35.10
2018-03-22T11:59:58.354Z,35.60
2018-03-22T12:00:58.353Z,32.90
2018-03-22T12:01:59.422Z,36.80
2018-03-22T12:02:58.359Z,35.90
2018-03-22T12:03:58.370Z,34.90
2018-03-22T12:04:58.372Z,35.90
2018-03-22T12:05:59.407Z,39.00
2018-03-22T12:06:58.368Z,37.40
2018-03-22T12:07:58.396Z,38.80
2018-03-22T12:08:58.373Z,38.60
2018-03-22T12:09:58.410Z,35.80
2018-03-22T12:10:58.367Z,37.90
2018-03-22T12:11:58.429Z,35.80
2018-03-22T12:12:58.371Z,34.60
2018-03-22T12:13:58.372Z,39.60
2018-03-22T12:14:58.392Z,37.10
2018-03-22T12:15:58.452Z,37.30
2018-03-22T12:16:58.374Z,33.30
2018-03-22T12:17:58.467Z,35.00
2018-03-22T12:18:58.382Z,37.30
2018-03-22T12:19:58.384Z,37.90
2018-03-22T12:20:58.393Z,37.20
2018-03-22T12:21:58.489Z,38.50
2018-03-22T12:22:58.392Z,40.00
2018-03-22T12:23:58.406Z,34.60
2018-03-22T12:24:58.398Z,37.30
2018-03-22T12:25:58.421Z,35.20
2018-03-22T12:26:58.391Z,35.40
2018-03-22T12:27:58.446Z,38.90
2018-03-22T12:28:58.396Z,31.80
2018-03-22T12:29:58.447Z,33.70
2018-03-22T12:30:58.408Z,35.70
2018-03-22T12:31:58.474Z,34.80
2018-03-22T12:32:58.405Z,32.90
2018-03-22T12:33:58.473Z,35.40
2018-03-22T12:34:58.408Z,36.90
2018-03-22T12:35:59.519Z,33.60
2018-03-22T12:36:58.417Z,35.10
2018-03-22T12:37:58.501Z,37.10
2018-03-22T12:38:58.422Z,34.00
2018-03-22T12:39:58.518Z,30.20
2018-03-22T12:40:58.430Z,30.80
2018-03-22T12:41:58.533Z,33.40
2018-03-22T12:42:58.423Z,30.90
2018-03-22T12:43:58.440Z,29.40
2018-03-22T12:44:58.426Z,27.70
2018-03-22T12:45:58.433Z,29.90
2018-03-22T12:46:58.477Z,30.60
2018-03-22T12:47:58.471Z,31.60
2018-03-22T12:48:58.428Z,30.70
2018-03-22T12:49:58.477Z,30.60
2018-03-22T12:50:58.442Z,31.20
2018-03-22T12:51:58.492Z,26.10
2018-03-22T12:52:58.437Z,28.60